createdAt,value
2019-02-10T00:01:35.411Z,4.33
2019-02-10T00:04:03.568Z,4.27
2019-02-10T00:06:31.926Z,5.17
2019-02-10T00:09:00.008Z,4.77
2019-02-10T00:11:28.099Z,4.97
2019-02-10T00:13:57.165Z,4.40
2019-02-10T00:16:27.553Z,4.10
2019-02-10T00:18:55.987Z,5.27
2019-02-10T00:21:24.431Z,4.83
2019-02-10T00:23:52.664Z,4.50
2019-02-10T00:26:21.157Z,4.97
2019-02-10T00:28:49.436Z,5.07
2019-02-10T00:31:19.849Z,4.17
2019-02-10T00:33:48.031Z,4.43
2019-02-10T00:36:16.335Z,5.90
2019-02-10T00:38:44.585Z,5.20
2019-02-10T00:41:12.779Z,5.13
2019-02-10T00:43:41.107Z,5.33
2019-02-10T00:46:09.241Z,4.60
2019-02-10T00:48:37.344Z,4.87
2019-02-10T00:51:05.514Z,4.50
2019-02-10T00:53:33.816Z,4.50
2019-02-10T00:56:02.289Z,4.57
2019-02-10T00:58:30.353Z,5.43
2019-02-10T01:00:58.495Z,4.63
2019-02-10T01:03:26.874Z,5.47
2019-02-10T01:05:55.073Z,4.60
2019-02-10T01:08:23.354Z,5.73
2019-02-10T01:10:51.619Z,4.67
2019-02-10T01:13:19.742Z,4.67
2019-02-10T01:15:50.395Z,4.80
2019-02-10T01:18:18.706Z,5.00
2019-02-10T01:20:46.855Z,5.00
2019-02-10T01:23:15.023Z,4.43
2019-02-10T01:25:43.122Z,5.07
2019-02-10T01:28:11.234Z,5.23
2019-02-10T01:30:39.531Z,5.00
2019-02-10T01:33:07.665Z,4.90
2019-02-10T01:35:37.859Z,4.73
2019-02-10T01:38:06.232Z,5.53
2019-02-10T01:40:35.505Z,5.37
2019-02-10T01:43:04.970Z,5.10
2019-02-10T01:45:33.273Z,5.30
2019-02-10T01:48:01.799Z,4.37
2019-02-10T01:50:29.926Z,6.03
2019-02-10T01:52:58.066Z,5.30
2019-02-10T01:55:27.070Z,5.33
2019-02-10T01:57:55.398Z,5.77
2019-02-10T02:00:23.716Z,5.13
2019-02-10T02:02:51.814Z,5.80
2019-02-10T02:05:19.903Z,5.53
2019-02-10T02:07:47.998Z,5.03
2019-02-10T02:10:16.957Z,4.80
2019-02-10T02:12:45.021Z,5.43
2019-02-10T02:15:14.157Z,5.07
2019-02-10T02:17:42.431Z,5.33
2019-02-10T02:20:11.117Z,4.73
2019-02-10T02:22:39.292Z,6.10
2019-02-10T02:25:12.099Z,4.83
2019-02-10T02:27:40.366Z,5.33
2019-02-10T02:30:12.330Z,5.60
2019-02-10T02:32:40.649Z,5.27
2019-02-10T02:35:09.417Z,4.93
2019-02-10T02:37:37.560Z,4.90
2019-02-10T02:40:08.599Z,5.20
2019-02-10T02:42:36.779Z,5.47
2019-02-10T02:45:07.891Z,5.33
2019-02-10T02:47:36.172Z,5.03
2019-02-10T02:50:07.179Z,5.00
2019-02-10T02:52:35.425Z,5.30
2019-02-10T02:55:03.805Z,4.90
2019-02-10T02:57:32.010Z,4.80
2019-02-10T03:00:00.485Z,4.50
2019-02-10T03:02:28.819Z,5.73
2019-02-10T03:04:57.022Z,4.30
2019-02-10T03:07:25.352Z,4.90
2019-02-10T03:09:53.639Z,5.33
2019-02-10T03:12:21.969Z,5.27
2019-02-10T03:14:52.993Z,4.13
2019-02-10T03:17:21.168Z,4.90
2019-02-10T03:19:49.306Z,4.20
2019-02-10T03:22:17.426Z,4.50
2019-02-10T03:24:45.516Z,4.23
2019-02-10T03:27:13.594Z,4.60
2019-02-10T03:29:41.639Z,4.20
2019-02-10T03:32:09.710Z,4.50
2019-02-10T03:34:38.802Z,4.47
2019-02-10T03:37:07.014Z,4.80
2019-02-10T03:39:36.102Z,4.70
2019-02-10T03:42:06.833Z,4.53
2019-02-10T03:44:35.334Z,4.30
2019-02-10T03:47:05.787Z,4.70
2019-02-10T03:49:35.167Z,4.03
2019-02-10T03:52:03.634Z,4.77
2019-02-10T03:54:31.982Z,4.27
2019-02-10T03:57:00.290Z,4.00
2019-02-10T03:59:28.920Z,4.53
2019-02-10T04:01:58.550Z,4.33
2019-02-10T04:04:29.517Z,4.57
2019-02-10T04:06:58.071Z,4.67
2019-02-10T04:09:26.304Z,4.50
2019-02-10T04:11:55.551Z,4.53
2019-02-10T04:14:25.189Z,5.93
2019-02-10T04:16:53.282Z,3.90
2019-02-10T04:19:21.460Z,3.97
2019-02-10T04:21:50.692Z,4.90
2019-02-10T04:24:18.943Z,4.27
2019-02-10T04:26:47.146Z,4.87
2019-02-10T04:29:16.755Z,4.50
2019-02-10T04:31:45.098Z,4.10
2019-02-10T04:34:13.200Z,4.57
2019-02-10T04:36:41.380Z,4.13
2019-02-10T04:39:09.820Z,4.10
2019-02-10T04:41:38.143Z,4.30
2019-02-10T04:44:06.467Z,4.17
2019-02-10T04:46:34.650Z,4.40
2019-02-10T04:49:02.707Z,4.03
2019-02-10T04:51:31.842Z,4.00
2019-02-10T04:53:59.988Z,4.73
2019-02-10T04:56:28.243Z,4.93
2019-02-10T04:58:56.343Z,3.67
2019-02-10T05:01:24.460Z,4.93
2019-02-10T05:03:52.755Z,4.10
2019-02-10T05:06:20.813Z,4.80
2019-02-10T05:08:49.963Z,4.20
2019-02-10T05:11:20.324Z,4.60
2019-02-10T05:13:48.566Z,4.23
2019-02-10T05:16:17.801Z,4.37
2019-02-10T05:18:46.040Z,3.80
2019-02-10T05:21:14.249Z,3.90
2019-02-10T05:23:42.592Z,4.53
2019-02-10T05:26:10.808Z,4.60
2019-02-10T05:28:38.895Z,4.20
2019-02-10T05:31:06.954Z,4.20
2019-02-10T05:33:35.128Z,3.97
2019-02-10T05:36:03.368Z,3.87
2019-02-10T05:38:31.534Z,4.47
2019-02-10T05:40:59.753Z,4.27
2019-02-10T05:43:30.043Z,4.10
2019-02-10T05:46:00.127Z,4.40
2019-02-10T05:48:28.343Z,3.80
2019-02-10T05:50:56.581Z,3.50
2019-02-10T05:53:26.970Z,4.30
2019-02-10T05:55:55.065Z,2.73
2019-02-10T05:58:25.319Z,3.90
2019-02-10T06:00:53.442Z,4.00
2019-02-10T06:03:21.680Z,4.40
2019-02-10T06:05:49.942Z,3.10
2019-02-10T06:08:18.139Z,3.70
2019-02-10T06:10:46.275Z,4.07
2019-02-10T06:13:14.394Z,3.60
2019-02-10T06:15:42.623Z,3.23
2019-02-10T06:18:10.937Z,3.87
2019-02-10T06:20:39.367Z,4.47
2019-02-10T06:23:07.588Z,3.80
2019-02-10T06:25:35.648Z,3.73
2019-02-10T06:28:03.955Z,3.73
2019-02-10T06:30:32.139Z,3.53
2019-02-10T06:33:00.268Z,4.10
2019-02-10T06:35:28.468Z,4.30
2019-02-10T06:37:56.908Z,4.00
2019-02-10T06:40:25.124Z,3.70
2019-02-10T06:42:53.704Z,3.70
2019-02-10T06:45:21.901Z,4.40
2019-02-10T06:47:49.991Z,3.87
2019-02-10T06:50:18.050Z,3.60
2019-02-10T06:52:46.130Z,3.33
2019-02-10T06:55:14.280Z,3.77
2019-02-10T06:57:42.411Z,3.67
2019-02-10T07:00:49.584Z,4.03
2019-02-10T07:03:52.841Z,3.93
2019-02-10T07:06:23.181Z,3.60
2019-02-10T07:08:51.242Z,3.43
2019-02-10T07:11:19.290Z,4.30
2019-02-10T07:13:54.016Z,3.97
2019-02-10T07:17:00.259Z,4.30
2019-02-10T07:20:29.756Z,3.67
2019-02-10T07:24:05.086Z,3.90
2019-02-10T07:26:59.454Z,3.60
2019-02-10T07:30:36.052Z,3.67
2019-02-10T07:33:39.620Z,3.40
2019-02-10T07:36:57.681Z,3.17
2019-02-10T07:40:20.638Z,3.50
2019-02-10T07:43:10.317Z,3.47
2019-02-10T07:47:00.047Z,3.80
2019-02-10T07:50:03.836Z,3.53
2019-02-10T07:53:21.497Z,3.57
2019-02-10T07:57:03.626Z,4.03
2019-02-10T08:00:11.390Z,3.63
2019-02-10T08:03:53.248Z,3.40
2019-02-10T08:07:04.772Z,3.23
2019-02-10T08:10:17.647Z,3.00
2019-02-10T08:13:28.390Z,3.20
2019-02-10T08:17:00.456Z,3.70
2019-02-10T08:20:17.337Z,3.47
2019-02-10T08:23:28.381Z,3.50
2019-02-10T08:26:32.026Z,3.57
2019-02-10T08:29:35.234Z,4.27
2019-02-10T08:32:54.076Z,3.60
2019-02-10T08:36:06.014Z,3.90
2019-02-10T08:39:51.670Z,3.50
2019-02-10T08:43:16.029Z,3.33
2019-02-10T08:46:37.980Z,4.23
2019-02-10T08:49:45.811Z,4.20
2019-02-10T08:53:02.603Z,3.77
2019-02-10T08:55:30.750Z,4.73
2019-02-10T08:57:58.931Z,3.73
2019-02-10T09:00:27.080Z,3.63
2019-02-10T09:02:55.180Z,3.67
2019-02-10T09:05:23.314Z,3.50
2019-02-10T09:07:51.539Z,3.70
2019-02-10T09:10:22.387Z,3.40
2019-02-10T09:12:50.681Z,3.80
2019-02-10T09:15:18.784Z,3.33
2019-02-10T09:17:48.748Z,3.77
2019-02-10T09:20:17.140Z,2.87
2019-02-10T09:22:45.396Z,3.17
2019-02-10T09:25:13.719Z,3.37
2019-02-10T09:27:41.857Z,3.67
2019-02-10T09:30:11.391Z,3.03
2019-02-10T09:32:39.847Z,2.97
2019-02-10T09:35:08.718Z,3.87
2019-02-10T09:37:39.099Z,4.20
2019-02-10T09:40:08.552Z,4.37
2019-02-10T09:42:37.394Z,4.37
2019-02-10T09:45:08.741Z,4.47
2019-02-10T09:47:37.372Z,4.23
2019-02-10T09:50:11.238Z,4.70
2019-02-10T09:52:39.544Z,5.67
2019-02-10T09:55:08.108Z,5.03
2019-02-10T09:57:36.409Z,5.00
2019-02-10T10:00:06.552Z,4.27
2019-02-10T10:02:34.697Z,4.77
2019-02-10T10:05:03.018Z,5.20
2019-02-10T10:07:32.095Z,5.93
2019-02-10T10:10:00.300Z,6.07
2019-02-10T10:12:29.620Z,5.87
2019-02-10T10:14:59.292Z,6.10
2019-02-10T10:17:27.704Z,6.03
2019-02-10T10:19:56.725Z,6.83
2019-02-10T10:22:24.919Z,6.07
2019-02-10T10:24:53.196Z,5.90
2019-02-10T10:27:21.452Z,5.80
2019-02-10T10:29:49.585Z,5.80
2019-02-10T10:32:17.984Z,5.87
2019-02-10T10:34:47.081Z,5.93
2019-02-10T10:37:15.821Z,5.67
2019-02-10T10:39:44.042Z,5.30
2019-02-10T10:42:12.659Z,6.13
2019-02-10T10:44:40.783Z,5.80
2019-02-10T10:47:08.978Z,6.10
2019-02-10T10:49:37.230Z,6.53
2019-02-10T10:52:05.591Z,6.47
2019-02-10T10:54:33.831Z,6.30
2019-02-10T10:57:02.455Z,7.50
2019-02-10T10:59:30.702Z,6.07
2019-02-10T11:01:59.100Z,7.43
2019-02-10T11:04:28.319Z,7.43
2019-02-10T11:06:56.531Z,6.97
2019-02-10T11:09:24.843Z,7.47
2019-02-10T11:11:53.021Z,7.50
2019-02-10T11:14:21.202Z,6.77
2019-02-10T11:16:49.327Z,7.53
2019-02-10T11:19:17.544Z,7.30
2019-02-10T11:21:48.677Z,7.27
2019-02-10T11:24:16.904Z,7.20
2019-02-10T11:26:45.065Z,7.13
2019-02-10T11:29:13.350Z,7.87
2019-02-10T11:31:41.591Z,7.27
2019-02-10T11:34:10.187Z,8.00
2019-02-10T11:36:38.543Z,8.00
2019-02-10T11:39:06.754Z,7.43
2019-02-10T11:41:34.951Z,7.40
2019-02-10T11:44:04.923Z,8.00
2019-02-10T11:46:34.410Z,8.40
2019-02-10T11:49:02.783Z,8.10
2019-02-10T11:51:31.226Z,7.47
2019-02-10T11:54:04.312Z,7.67
2019-02-10T11:56:34.294Z,7.50
2019-02-10T11:59:03.538Z,7.70
2019-02-10T12:01:33.287Z,7.40
2019-02-10T12:04:01.681Z,6.30
2019-02-10T12:06:31.150Z,6.47
2019-02-10T12:08:59.590Z,6.80
2019-02-10T12:11:28.603Z,7.17
2019-02-10T12:13:56.941Z,6.70
2019-02-10T12:16:25.182Z,7.20
2019-02-10T12:18:53.414Z,6.87
2019-02-10T12:21:21.612Z,7.33
2019-02-10T12:23:50.133Z,7.03
2019-02-10T12:26:18.561Z,6.97
2019-02-10T12:28:46.708Z,6.30
2019-02-10T12:31:17.202Z,5.93
2019-02-10T12:33:45.999Z,6.20
2019-02-10T12:36:14.144Z,6.47
2019-02-10T12:38:42.283Z,6.23
2019-02-10T12:41:13.152Z,6.40
2019-02-10T12:43:41.578Z,6.20
2019-02-10T12:46:09.910Z,6.63
2019-02-10T12:48:38.034Z,6.73
2019-02-10T12:51:07.205Z,7.17
2019-02-10T12:53:35.336Z,7.00
2019-02-10T12:56:03.529Z,6.30
2019-02-10T12:58:31.793Z,6.80
2019-02-10T13:01:00.246Z,6.73
2019-02-10T13:03:28.514Z,6.50
2019-02-10T13:06:11.817Z,6.23
2019-02-10T13:08:40.618Z,7.23
2019-02-10T13:11:08.876Z,6.57
2019-02-10T13:13:37.202Z,6.80
2019-02-10T13:16:05.576Z,6.60
2019-02-10T13:18:33.807Z,6.80
2019-02-10T13:21:02.016Z,6.70
2019-02-10T13:23:30.205Z,6.80
2019-02-10T13:25:58.493Z,7.17
2019-02-10T13:28:27.877Z,7.80
2019-02-10T13:30:56.742Z,7.77
2019-02-10T13:33:25.029Z,8.33
2019-02-10T13:35:53.618Z,8.47
2019-02-10T13:38:22.956Z,8.43
2019-02-10T13:40:51.114Z,9.07
2019-02-10T13:43:23.414Z,8.77
2019-02-10T13:45:51.591Z,8.80
2019-02-10T13:48:19.870Z,8.77
2019-02-10T13:50:47.991Z,7.97
2019-02-10T13:53:17.694Z,9.43
2019-02-10T13:55:46.130Z,9.13
2019-02-10T13:58:14.249Z,8.63
2019-02-10T14:00:42.397Z,8.40
2019-02-10T14:03:10.633Z,7.30
2019-02-10T14:05:39.383Z,6.77
2019-02-10T14:08:07.806Z,6.73
2019-02-10T14:10:36.041Z,6.60
2019-02-10T14:13:06.366Z,6.10
2019-02-10T14:15:34.804Z,5.47
2019-02-10T14:18:05.435Z,5.60
2019-02-10T14:20:33.969Z,6.17
2019-02-10T14:23:02.506Z,5.67
2019-02-10T14:25:34.901Z,5.30
2019-02-10T14:28:03.399Z,4.97
2019-02-10T14:30:32.043Z,5.30
2019-02-10T14:33:00.348Z,5.30
2019-02-10T14:35:28.499Z,4.37
2019-02-10T14:37:56.919Z,4.47
2019-02-10T14:40:33.242Z,4.83
2019-02-10T14:42:55.159Z,4.40
2019-02-10T14:45:23.361Z,4.23
2019-02-10T14:47:51.848Z,4.13
2019-02-10T14:50:20.247Z,4.37
2019-02-10T14:52:50.927Z,4.40
2019-02-10T14:55:20.287Z,4.13
2019-02-10T14:57:48.839Z,4.23
2019-02-10T15:00:17.412Z,4.00
2019-02-10T15:02:45.768Z,4.40
2019-02-10T15:05:14.007Z,4.30
2019-02-10T15:07:42.244Z,4.60
2019-02-10T15:10:11.989Z,4.90
2019-02-10T15:12:41.303Z,4.60
2019-02-10T15:15:10.097Z,4.90
2019-02-10T15:17:38.267Z,4.07
2019-02-10T15:20:07.150Z,4.57
2019-02-10T15:22:35.868Z,4.20
2019-02-10T15:25:04.906Z,4.47
2019-02-10T15:27:33.525Z,4.40
2019-02-10T15:30:05.193Z,4.93
2019-02-10T15:32:33.860Z,4.70
2019-02-10T15:35:02.160Z,4.80
2019-02-10T15:37:30.315Z,5.90
2019-02-10T15:39:58.552Z,5.13
2019-02-10T15:42:26.865Z,5.13
2019-02-10T15:44:55.281Z,5.20
2019-02-10T15:47:23.659Z,5.30
2019-02-10T15:49:53.744Z,5.70
2019-02-10T15:52:22.093Z,5.90
2019-02-10T15:54:50.236Z,5.67
2019-02-10T15:57:18.418Z,5.90
2019-02-10T15:59:46.578Z,5.70
2019-02-10T16:02:14.823Z,6.10
2019-02-10T16:04:43.052Z,5.90
2019-02-10T16:07:12.426Z,5.87
2019-02-10T16:09:40.844Z,6.43
2019-02-10T16:12:09.062Z,6.53
2019-02-10T16:14:37.174Z,6.53
2019-02-10T16:17:06.379Z,6.20
2019-02-10T16:19:34.489Z,6.80
2019-02-10T16:22:02.646Z,7.60
2019-02-10T16:24:31.059Z,7.53
2019-02-10T16:27:00.141Z,8.50
2019-02-10T16:29:28.452Z,8.53
2019-02-10T16:31:56.719Z,8.37
2019-02-10T16:34:25.265Z,7.87
2019-02-10T16:36:53.408Z,8.13
2019-02-10T16:39:21.959Z,8.47
2019-02-10T16:41:50.183Z,8.30
2019-02-10T16:44:18.514Z,8.20
2019-02-10T16:46:46.891Z,7.80
2019-02-10T16:49:15.064Z,7.70
2019-02-10T16:51:43.339Z,8.07
2019-02-10T16:54:11.774Z,7.20
2019-02-10T16:56:39.893Z,7.20
2019-02-10T16:59:08.160Z,7.50
2019-02-10T17:01:37.797Z,7.37
2019-02-10T17:04:06.581Z,7.87
2019-02-10T17:06:34.856Z,7.33
2019-02-10T17:09:04.752Z,7.57
2019-02-10T17:11:33.992Z,8.37
2019-02-10T17:14:02.185Z,8.73
2019-02-10T17:16:30.894Z,8.37
2019-02-10T17:18:59.368Z,7.73
2019-02-10T17:21:27.695Z,7.90
2019-02-10T17:23:55.848Z,7.60
2019-02-10T17:26:24.068Z,8.13
2019-02-10T17:28:52.321Z,8.33
2019-02-10T17:31:20.848Z,8.07
2019-02-10T17:33:49.631Z,7.17
2019-02-10T17:36:19.538Z,7.80
2019-02-10T17:38:48.165Z,7.77
2019-02-10T17:41:25.446Z,7.33
2019-02-10T17:43:55.947Z,7.50
2019-02-10T17:46:26.442Z,6.47
2019-02-10T17:48:55.438Z,6.50
2019-02-10T17:51:23.711Z,6.77
2019-02-10T17:53:51.930Z,6.80
2019-02-10T17:56:20.288Z,5.87
2019-02-10T17:58:48.475Z,6.10
2019-02-10T18:01:17.514Z,5.90
2019-02-10T18:03:45.732Z,5.60
2019-02-10T18:06:13.970Z,4.73
2019-02-10T18:08:42.192Z,4.70
2019-02-10T18:11:11.563Z,4.57
2019-02-10T18:13:40.071Z,4.50
2019-02-10T18:16:43.647Z,4.30
2019-02-10T18:19:34.347Z,3.90
2019-02-10T18:22:33.862Z,3.73
2019-02-10T18:25:23.403Z,4.20
2019-02-10T18:28:10.593Z,4.73
2019-02-10T18:31:05.277Z,4.10
2019-02-10T18:33:42.543Z,3.90
2019-02-10T18:36:37.988Z,3.80
2019-02-10T18:39:26.325Z,4.10
2019-02-10T18:42:26.087Z,3.70
2019-02-10T18:45:11.687Z,3.90
2019-02-10T18:47:49.941Z,4.20
2019-02-10T18:50:41.867Z,5.20
2019-02-10T18:53:35.713Z,5.87
2019-02-10T18:56:25.641Z,6.00
2019-02-10T18:59:11.970Z,6.27
2019-02-10T19:02:08.787Z,6.67
2019-02-10T19:05:12.490Z,6.43
2019-02-10T19:07:52.593Z,6.23
2019-02-10T19:10:40.366Z,5.93
2019-02-10T19:13:39.012Z,6.23
2019-02-10T19:16:25.456Z,6.20
2019-02-10T19:19:22.276Z,5.70
2019-02-10T19:21:58.982Z,4.60
2019-02-10T19:24:54.296Z,5.13
2019-02-10T19:27:42.409Z,5.57
2019-02-10T19:30:28.623Z,6.47
2019-02-10T19:33:19.815Z,7.23
2019-02-10T19:35:59.360Z,7.83
2019-02-10T19:38:37.203Z,7.90
2019-02-10T19:41:14.471Z,8.13
2019-02-10T19:44:02.324Z,9.73
2019-02-10T19:46:49.765Z,10.03
2019-02-10T19:49:43.244Z,10.60
2019-02-10T19:52:29.785Z,10.43
2019-02-10T19:55:26.341Z,10.37
2019-02-10T19:58:14.231Z,6.37
2019-02-10T20:01:01.293Z,5.43
2019-02-10T20:03:41.090Z,2.90
2019-02-10T20:06:30.391Z,2.00
2019-02-10T20:09:16.700Z,2.20
2019-02-10T20:12:04.348Z,2.23
2019-02-10T20:14:50.630Z,2.57
2019-02-10T20:17:56.769Z,2.00
2019-02-10T20:20:50.401Z,2.00
2019-02-10T20:23:39.915Z,1.60
2019-02-10T20:26:36.634Z,1.50
2019-02-10T20:29:36.410Z,1.93
2019-02-10T20:32:19.151Z,1.73
2019-02-10T20:34:56.557Z,1.93
2019-02-10T20:37:42.875Z,2.43
2019-02-10T20:40:33.671Z,2.20
2019-02-10T20:43:27.150Z,2.20
2019-02-10T20:46:06.964Z,2.23
2019-02-10T20:48:59.053Z,2.27
2019-02-10T20:51:48.510Z,2.50
2019-02-10T20:54:29.684Z,2.57
2019-02-10T20:57:17.432Z,2.10
2019-02-10T21:00:10.787Z,2.53
2019-02-10T21:02:57.820Z,2.30
2019-02-10T21:05:45.551Z,2.33
2019-02-10T21:08:21.755Z,2.30
2019-02-10T21:11:12.740Z,2.67
2019-02-10T21:14:05.662Z,2.90
2019-02-10T21:16:48.717Z,3.03
2019-02-10T21:19:28.455Z,3.50
2019-02-10T21:22:05.533Z,3.60
2019-02-10T21:24:42.296Z,4.33
2019-02-10T21:27:28.327Z,5.20
2019-02-10T21:30:13.129Z,4.97
2019-02-10T21:33:00.982Z,5.73
2019-02-10T21:35:48.377Z,5.87
2019-02-10T21:38:54.258Z,5.97
2019-02-10T21:41:40.277Z,5.70
2019-02-10T21:44:20.401Z,6.53
2019-02-10T21:46:59.327Z,5.93
2019-02-10T21:49:28.087Z,5.93
2019-02-10T21:51:57.529Z,5.83
2019-02-10T21:54:25.825Z,5.77
2019-02-10T21:56:54.056Z,5.27
2019-02-10T21:59:22.396Z,5.80
2019-02-10T22:01:53.790Z,5.67
2019-02-10T22:04:20.773Z,5.27
2019-02-10T22:06:49.131Z,6.00
2019-02-10T22:09:17.266Z,5.60
2019-02-10T22:11:45.497Z,6.30
2019-02-10T22:14:14.205Z,6.73
2019-02-10T22:16:42.517Z,6.37
2019-02-10T22:19:13.560Z,6.90
2019-02-10T22:21:42.043Z,7.20
2019-02-10T22:24:10.471Z,7.50
2019-02-10T22:26:38.534Z,9.00
2019-02-10T22:29:06.719Z,8.27
2019-02-10T22:31:34.791Z,9.80
2019-02-10T22:34:03.083Z,11.60
2019-02-10T22:36:31.199Z,12.43
2019-02-10T22:38:59.391Z,13.20
2019-02-10T22:41:27.804Z,12.90
2019-02-10T22:43:55.968Z,14.83
2019-02-10T22:46:24.040Z,15.43
2019-02-10T22:48:52.112Z,16.73
2019-02-10T22:51:20.259Z,17.20
2019-02-10T22:53:48.300Z,17.47
2019-02-10T22:56:16.436Z,17.27
2019-02-10T22:58:44.582Z,17.17
2019-02-10T23:01:12.614Z,17.53
2019-02-10T23:03:40.830Z,15.20
2019-02-10T23:06:08.904Z,15.13
2019-02-10T23:08:37.316Z,14.93
2019-02-10T23:11:05.489Z,13.73
2019-02-10T23:13:33.634Z,13.97
2019-02-10T23:16:01.676Z,13.87
2019-02-10T23:18:29.742Z,11.90
2019-02-10T23:23:38.427Z,10.40
2019-02-10T23:26:06.782Z,10.23
2019-02-10T23:28:34.856Z,8.63
2019-02-10T23:31:02.996Z,8.13
2019-02-10T23:33:31.226Z,7.27
2019-02-10T23:35:59.352Z,7.53
2019-02-10T23:38:27.486Z,7.40
2019-02-10T23:40:55.593Z,6.27
2019-02-10T23:43:23.688Z,6.33
2019-02-10T23:45:51.909Z,5.70
2019-02-10T23:48:20.108Z,6.77
2019-02-10T23:50:48.140Z,5.17
2019-02-10T23:53:17.031Z,5.87
2019-02-10T23:55:47.025Z,4.70
2019-02-10T23:58:15.190Z,5.47
